sensor_id;sensor_type;location;lat;lon;timestamp;temperature;humidity
33803;DHT22;20110;53.120;5.786;2023-08-06T00:00:28;12.60;99.90
33803;DHT22;20110;53.120;5.786;2023-08-06T00:02:54;12.60;99.90
33803;DHT22;20110;53.120;5.786;2023-08-06T00:05:20;12.60;99.90
33803;DHT22;20110;53.120;5.786;2023-08-06T00:07:49;12.60;99.90
33803;DHT22;20110;53.120;5.786;2023-08-06T00:10:16;12.60;99.90
33803;DHT22;20110;53.120;5.786;2023-08-06T00:12:43;12.60;99.90
33803;DHT22;20110;53.120;5.786;2023-08-06T00:15:10;12.50;99.90
33803;DHT22;20110;53.120;5.786;2023-08-06T00:17:37;12.60;99.90
33803;DHT22;20110;53.120;5.786;2023-08-06T00:20:04;12.60;99.90
33803;DHT22;20110;53.120;5.786;2023-08-06T00:22:33;12.60;99.90
33803;DHT22;20110;53.120;5.786;2023-08-06T00:25:01;12.60;99.90
33803;DHT22;20110;53.120;5.786;2023-08-06T00:27:27;12.60;99.90
33803;DHT22;20110;53.120;5.786;2023-08-06T00:29:53;12.70;99.90
33803;DHT22;20110;53.120;5.786;2023-08-06T00:32:19;12.60;99.90
33803;DHT22;20110;53.120;5.786;2023-08-06T00:34:46;12.70;99.90
33803;DHT22;20110;53.120;5.786;2023-08-06T00:37:19;12.70;99.90
33803;DHT22;20110;53.120;5.786;2023-08-06T00:39:45;12.70;99.90
33803;DHT22;20110;53.120;5.786;2023-08-06T00:42:11;12.60;99.90
33803;DHT22;20110;53.120;5.786;2023-08-06T00:44:38;12.60;99.90
33803;DHT22;20110;53.120;5.786;2023-08-06T00:47:06;12.60;99.90
33803;DHT22;20110;53.120;5.786;2023-08-06T00:49:35;12.60;99.90
33803;DHT22;20110;53.120;5.786;2023-08-06T00:52:04;12.70;99.90
33803;DHT22;20110;53.120;5.786;2023-08-06T00:54:31;12.70;99.90
33803;DHT22;20110;53.120;5.786;2023-08-06T00:56:59;12.70;99.90
33803;DHT22;20110;53.120;5.786;2023-08-06T00:59:28;12.70;99.90
33803;DHT22;20110;53.120;5.786;2023-08-06T01:01:55;12.70;99.90
33803;DHT22;20110;53.120;5.786;2023-08-06T01:04:23;12.70;99.90
33803;DHT22;20110;53.120;5.786;2023-08-06T01:06:59;12.80;99.90
33803;DHT22;20110;53.120;5.786;2023-08-06T01:10:00;12.80;99.90
33803;DHT22;20110;53.120;5.786;2023-08-06T01:15:42;12.80;99.90
33803;DHT22;20110;53.120;5.786;2023-08-06T01:18:12;12.80;99.90
33803;DHT22;20110;53.120;5.786;2023-08-06T01:20:38;12.70;99.90
33803;DHT22;20110;53.120;5.786;2023-08-06T01:23:06;12.80;99.90
33803;DHT22;20110;53.120;5.786;2023-08-06T01:29:15;12.70;99.90
33803;DHT22;20110;53.120;5.786;2023-08-06T01:31:48;12.70;99.90
33803;DHT22;20110;53.120;5.786;2023-08-06T01:34:25;12.60;99.90
33803;DHT22;20110;53.120;5.786;2023-08-06T01:36:54;12.60;99.90
33803;DHT22;20110;53.120;5.786;2023-08-06T01:39:21;12.50;99.90
33803;DHT22;20110;53.120;5.786;2023-08-06T01:41:48;12.50;99.90
33803;DHT22;20110;53.120;5.786;2023-08-06T01:44:16;12.50;99.90
33803;DHT22;20110;53.120;5.786;2023-08-06T01:46:42;12.40;99.90
33803;DHT22;20110;53.120;5.786;2023-08-06T01:49:08;12.40;99.90
33803;DHT22;20110;53.120;5.786;2023-08-06T01:51:34;12.50;99.90
33803;DHT22;20110;53.120;5.786;2023-08-06T01:54:00;12.50;99.90
33803;DHT22;20110;53.120;5.786;2023-08-06T01:56:26;12.50;99.90
33803;DHT22;20110;53.120;5.786;2023-08-06T01:58:51;12.40;99.90
33803;DHT22;20110;53.120;5.786;2023-08-06T02:01:20;12.50;99.90
33803;DHT22;20110;53.120;5.786;2023-08-06T02:03:45;12.50;99.90
33803;DHT22;20110;53.120;5.786;2023-08-06T02:06:11;12.50;99.90
33803;DHT22;20110;53.120;5.786;2023-08-06T02:08:37;12.60;99.90
33803;DHT22;20110;53.120;5.786;2023-08-06T02:11:04;12.60;99.90
33803;DHT22;20110;53.120;5.786;2023-08-06T02:13:29;12.60;99.90
33803;DHT22;20110;53.120;5.786;2023-08-06T02:15:55;12.60;99.90
33803;DHT22;20110;53.120;5.786;2023-08-06T02:18:21;12.60;99.90
33803;DHT22;20110;53.120;5.786;2023-08-06T02:20:59;12.60;99.90
33803;DHT22;20110;53.120;5.786;2023-08-06T02:23:26;12.50;99.90
33803;DHT22;20110;53.120;5.786;2023-08-06T02:26:02;12.50;99.90
33803;DHT22;20110;53.120;5.786;2023-08-06T02:28:30;12.50;99.90
33803;DHT22;20110;53.120;5.786;2023-08-06T02:30:56;12.50;99.90
33803;DHT22;20110;53.120;5.786;2023-08-06T02:33:23;12.50;99.90
33803;DHT22;20110;53.120;5.786;2023-08-06T02:35:49;12.50;99.90
33803;DHT22;20110;53.120;5.786;2023-08-06T02:38:15;12.50;99.90
33803;DHT22;20110;53.120;5.786;2023-08-06T02:40:45;12.50;99.90
33803;DHT22;20110;53.120;5.786;2023-08-06T02:43:12;12.50;99.90
33803;DHT22;20110;53.120;5.786;2023-08-06T02:45:38;12.50;99.90
33803;DHT22;20110;53.120;5.786;2023-08-06T02:48:04;12.50;99.90
33803;DHT22;20110;53.120;5.786;2023-08-06T02:50:31;12.50;99.90
33803;DHT22;20110;53.120;5.786;2023-08-06T02:52:57;12.50;99.90
33803;DHT22;20110;53.120;5.786;2023-08-06T02:55:22;12.60;99.90
33803;DHT22;20110;53.120;5.786;2023-08-06T02:57:48;12.60;99.90
33803;DHT22;20110;53.120;5.786;2023-08-06T03:00:14;12.60;99.90
33803;DHT22;20110;53.120;5.786;2023-08-06T03:02:40;12.60;99.90
33803;DHT22;20110;53.120;5.786;2023-08-06T03:05:06;12.60;99.90
33803;DHT22;20110;53.120;5.786;2023-08-06T03:07:32;12.60;99.90
33803;DHT22;20110;53.120;5.786;2023-08-06T03:09:59;12.60;99.90
33803;DHT22;20110;53.120;5.786;2023-08-06T03:12:27;12.60;99.90
33803;DHT22;20110;53.120;5.786;2023-08-06T03:14:53;12.60;99.90
33803;DHT22;20110;53.120;5.786;2023-08-06T03:17:18;12.60;99.90
33803;DHT22;20110;53.120;5.786;2023-08-06T03:19:44;12.70;99.90
33803;DHT22;20110;53.120;5.786;2023-08-06T03:22:10;12.70;99.90
33803;DHT22;20110;53.120;5.786;2023-08-06T03:24:36;12.80;99.90
33803;DHT22;20110;53.120;5.786;2023-08-06T03:27:02;12.70;99.90
33803;DHT22;20110;53.120;5.786;2023-08-06T03:29:28;12.70;99.90
33803;DHT22;20110;53.120;5.786;2023-08-06T03:31:54;12.70;99.90
33803;DHT22;20110;53.120;5.786;2023-08-06T03:34:19;12.70;99.90
33803;DHT22;20110;53.120;5.786;2023-08-06T03:36:45;12.70;99.90
33803;DHT22;20110;53.120;5.786;2023-08-06T03:39:11;12.60;99.90
33803;DHT22;20110;53.120;5.786;2023-08-06T03:41:37;12.60;99.90
33803;DHT22;20110;53.120;5.786;2023-08-06T03:44:03;12.60;99.90
33803;DHT22;20110;53.120;5.786;2023-08-06T03:46:29;12.60;99.90
33803;DHT22;20110;53.120;5.786;2023-08-06T03:49:01;12.50;99.90
33803;DHT22;20110;53.120;5.786;2023-08-06T03:51:28;12.50;99.90
33803;DHT22;20110;53.120;5.786;2023-08-06T03:53:53;12.40;99.90
33803;DHT22;20110;53.120;5.786;2023-08-06T03:56:19;12.40;99.90
33803;DHT22;20110;53.120;5.786;2023-08-06T03:58:45;12.40;99.90
33803;DHT22;20110;53.120;5.786;2023-08-06T04:01:11;12.30;99.90
33803;DHT22;20110;53.120;5.786;2023-08-06T04:03:37;12.30;99.90
33803;DHT22;20110;53.120;5.786;2023-08-06T04:06:03;12.20;99.90
33803;DHT22;20110;53.120;5.786;2023-08-06T04:08:29;12.10;99.90
33803;DHT22;20110;53.120;5.786;2023-08-06T04:10:56;12.10;99.90
33803;DHT22;20110;53.120;5.786;2023-08-06T04:13:22;12.00;99.90
33803;DHT22;20110;53.120;5.786;2023-08-06T04:15:48;11.90;99.90
33803;DHT22;20110;53.120;5.786;2023-08-06T04:18:20;11.90;99.90
33803;DHT22;20110;53.120;5.786;2023-08-06T04:20:47;11.80;99.90
33803;DHT22;20110;53.120;5.786;2023-08-06T04:23:15;11.80;99.90
33803;DHT22;20110;53.120;5.786;2023-08-06T04:25:42;11.80;99.90
33803;DHT22;20110;53.120;5.786;2023-08-06T04:28:10;11.80;99.90
33803;DHT22;20110;53.120;5.786;2023-08-06T04:30:37;11.80;99.90
33803;DHT22;20110;53.120;5.786;2023-08-06T04:33:03;11.90;99.90
33803;DHT22;20110;53.120;5.786;2023-08-06T04:35:29;11.90;99.90
33803;DHT22;20110;53.120;5.786;2023-08-06T04:37:55;12.00;99.90
33803;DHT22;20110;53.120;5.786;2023-08-06T04:40:21;12.10;99.90
33803;DHT22;20110;53.120;5.786;2023-08-06T04:42:47;12.20;99.90
33803;DHT22;20110;53.120;5.786;2023-08-06T04:45:13;12.20;99.90
33803;DHT22;20110;53.120;5.786;2023-08-06T04:47:38;12.30;99.90
33803;DHT22;20110;53.120;5.786;2023-08-06T04:50:05;12.30;99.90
33803;DHT22;20110;53.120;5.786;2023-08-06T04:52:31;12.40;99.90
33803;DHT22;20110;53.120;5.786;2023-08-06T04:54:57;12.40;99.90
33803;DHT22;20110;53.120;5.786;2023-08-06T04:57:23;12.50;99.90
33803;DHT22;20110;53.120;5.786;2023-08-06T04:59:49;12.50;99.90
33803;DHT22;20110;53.120;5.786;2023-08-06T05:02:15;12.50;99.90
33803;DHT22;20110;53.120;5.786;2023-08-06T05:04:41;12.60;99.90
33803;DHT22;20110;53.120;5.786;2023-08-06T05:07:07;12.60;99.90
33803;DHT22;20110;53.120;5.786;2023-08-06T05:09:33;12.60;99.90
33803;DHT22;20110;53.120;5.786;2023-08-06T05:12:01;12.70;99.90
33803;DHT22;20110;53.120;5.786;2023-08-06T05:14:27;12.70;99.90
33803;DHT22;20110;53.120;5.786;2023-08-06T05:16:53;12.70;99.90
33803;DHT22;20110;53.120;5.786;2023-08-06T05:19:20;12.70;99.90
33803;DHT22;20110;53.120;5.786;2023-08-06T05:21:46;12.80;99.90
33803;DHT22;20110;53.120;5.786;2023-08-06T05:24:12;12.90;99.90
33803;DHT22;20110;53.120;5.786;2023-08-06T05:26:37;12.90;99.90
33803;DHT22;20110;53.120;5.786;2023-08-06T05:29:03;13.00;99.90
33803;DHT22;20110;53.120;5.786;2023-08-06T05:31:29;13.10;99.90
33803;DHT22;20110;53.120;5.786;2023-08-06T05:33:55;13.20;99.90
33803;DHT22;20110;53.120;5.786;2023-08-06T05:36:21;13.30;99.90
33803;DHT22;20110;53.120;5.786;2023-08-06T05:38:47;13.30;99.90
33803;DHT22;20110;53.120;5.786;2023-08-06T05:41:13;13.30;99.90
33803;DHT22;20110;53.120;5.786;2023-08-06T05:43:39;13.40;99.90
33803;DHT22;20110;53.120;5.786;2023-08-06T05:46:04;13.40;99.90
33803;DHT22;20110;53.120;5.786;2023-08-06T05:48:30;13.50;99.90
33803;DHT22;20110;53.120;5.786;2023-08-06T05:50:57;13.60;99.90
33803;DHT22;20110;53.120;5.786;2023-08-06T05:53:24;13.60;99.90
33803;DHT22;20110;53.120;5.786;2023-08-06T05:55:50;13.60;99.90
33803;DHT22;20110;53.120;5.786;2023-08-06T05:58:16;13.70;99.90
33803;DHT22;20110;53.120;5.786;2023-08-06T06:00:42;13.80;99.90
33803;DHT22;20110;53.120;5.786;2023-08-06T06:03:08;13.90;99.90
33803;DHT22;20110;53.120;5.786;2023-08-06T06:05:34;13.90;99.90
33803;DHT22;20110;53.120;5.786;2023-08-06T06:08:03;14.00;99.90
33803;DHT22;20110;53.120;5.786;2023-08-06T06:10:29;14.10;99.90
33803;DHT22;20110;53.120;5.786;2023-08-06T06:12:55;14.20;99.90
33803;DHT22;20110;53.120;5.786;2023-08-06T06:15:21;14.30;99.90
33803;DHT22;20110;53.120;5.786;2023-08-06T06:17:47;14.40;99.90
33803;DHT22;20110;53.120;5.786;2023-08-06T06:20:13;14.50;99.90
33803;DHT22;20110;53.120;5.786;2023-08-06T06:22:39;14.60;99.90
33803;DHT22;20110;53.120;5.786;2023-08-06T06:25:05;14.70;99.90
33803;DHT22;20110;53.120;5.786;2023-08-06T06:27:32;14.80;99.90
33803;DHT22;20110;53.120;5.786;2023-08-06T06:29:57;14.80;99.90
33803;DHT22;20110;53.120;5.786;2023-08-06T06:32:23;14.80;99.90
33803;DHT22;20110;53.120;5.786;2023-08-06T06:34:49;14.90;99.90
33803;DHT22;20110;53.120;5.786;2023-08-06T06:37:15;15.10;99.90
33803;DHT22;20110;53.120;5.786;2023-08-06T06:39:41;15.20;99.90
33803;DHT22;20110;53.120;5.786;2023-08-06T06:42:07;15.20;99.90
33803;DHT22;20110;53.120;5.786;2023-08-06T06:44:32;15.20;99.90
33803;DHT22;20110;53.120;5.786;2023-08-06T06:46:58;15.30;99.90
33803;DHT22;20110;53.120;5.786;2023-08-06T06:49:24;15.30;99.90
33803;DHT22;20110;53.120;5.786;2023-08-06T06:51:50;15.30;99.90
33803;DHT22;20110;53.120;5.786;2023-08-06T06:54:16;15.50;99.90
33803;DHT22;20110;53.120;5.786;2023-08-06T06:56:42;15.50;99.90
33803;DHT22;20110;53.120;5.786;2023-08-06T06:59:08;15.50;99.90
33803;DHT22;20110;53.120;5.786;2023-08-06T07:01:34;15.50;99.90
33803;DHT22;20110;53.120;5.786;2023-08-06T07:03:59;15.50;99.90
33803;DHT22;20110;53.120;5.786;2023-08-06T07:06:31;15.60;99.90
33803;DHT22;20110;53.120;5.786;2023-08-06T07:08:57;15.60;99.90
33803;DHT22;20110;53.120;5.786;2023-08-06T07:11:22;15.80;99.90
33803;DHT22;20110;53.120;5.786;2023-08-06T07:13:49;15.90;99.90
33803;DHT22;20110;53.120;5.786;2023-08-06T07:16:21;15.90;99.90
33803;DHT22;20110;53.120;5.786;2023-08-06T07:18:47;15.90;99.90
33803;DHT22;20110;53.120;5.786;2023-08-06T07:21:12;16.00;99.90
33803;DHT22;20110;53.120;5.786;2023-08-06T07:23:38;16.20;99.90
33803;DHT22;20110;53.120;5.786;2023-08-06T07:26:04;16.40;99.90
33803;DHT22;20110;53.120;5.786;2023-08-06T07:28:30;16.50;99.90
33803;DHT22;20110;53.120;5.786;2023-08-06T07:30:56;16.70;99.90
33803;DHT22;20110;53.120;5.786;2023-08-06T07:33:21;16.90;99.90
33803;DHT22;20110;53.120;5.786;2023-08-06T07:35:47;17.00;99.90
33803;DHT22;20110;53.120;5.786;2023-08-06T07:38:14;17.00;99.90
33803;DHT22;20110;53.120;5.786;2023-08-06T07:40:40;17.20;99.90
33803;DHT22;20110;53.120;5.786;2023-08-06T07:43:06;17.20;99.90
33803;DHT22;20110;53.120;5.786;2023-08-06T07:45:35;17.20;99.90
33803;DHT22;20110;53.120;5.786;2023-08-06T07:48:02;17.10;99.90
33803;DHT22;20110;53.120;5.786;2023-08-06T07:50:28;17.20;99.90
33803;DHT22;20110;53.120;5.786;2023-08-06T07:52:54;17.20;99.90
33803;DHT22;20110;53.120;5.786;2023-08-06T07:55:20;17.20;99.90
33803;DHT22;20110;53.120;5.786;2023-08-06T07:57:46;17.30;99.90
33803;DHT22;20110;53.120;5.786;2023-08-06T08:00:12;17.20;99.90
33803;DHT22;20110;53.120;5.786;2023-08-06T08:02:38;17.20;99.90
33803;DHT22;20110;53.120;5.786;2023-08-06T08:05:04;17.10;99.90
33803;DHT22;20110;53.120;5.786;2023-08-06T08:07:31;17.20;99.90
33803;DHT22;20110;53.120;5.786;2023-08-06T08:09:56;17.40;99.90
33803;DHT22;20110;53.120;5.786;2023-08-06T08:12:22;17.70;99.90
33803;DHT22;20110;53.120;5.786;2023-08-06T08:14:48;17.90;99.90
33803;DHT22;20110;53.120;5.786;2023-08-06T08:17:14;18.10;99.90
33803;DHT22;20110;53.120;5.786;2023-08-06T08:19:40;17.90;99.90
33803;DHT22;20110;53.120;5.786;2023-08-06T08:22:07;18.20;99.90
33803;DHT22;20110;53.120;5.786;2023-08-06T08:24:34;18.50;99.90
33803;DHT22;20110;53.120;5.786;2023-08-06T08:27:00;18.80;47.40
33803;DHT22;20110;53.120;5.786;2023-08-06T08:29:25;19.00;1.00
33803;DHT22;20110;53.120;5.786;2023-08-06T08:31:51;18.90;99.90
33803;DHT22;20110;53.120;5.786;2023-08-06T08:34:17;19.00;99.90
33803;DHT22;20110;53.120;5.786;2023-08-06T08:36:43;19.10;99.90
33803;DHT22;20110;53.120;5.786;2023-08-06T08:39:12;19.00;99.90
33803;DHT22;20110;53.120;5.786;2023-08-06T08:41:39;19.20;52.50
33803;DHT22;20110;53.120;5.786;2023-08-06T08:44:08;19.40;1.00
33803;DHT22;20110;53.120;5.786;2023-08-06T08:46:40;19.50;99.90
33803;DHT22;20110;53.120;5.786;2023-08-06T08:49:07;19.50;99.90
33803;DHT22;20110;53.120;5.786;2023-08-06T08:51:33;19.50;99.90
33803;DHT22;20110;53.120;5.786;2023-08-06T08:54:03;19.40;99.90
33803;DHT22;20110;53.120;5.786;2023-08-06T08:56:29;19.30;1.00
33803;DHT22;20110;53.120;5.786;2023-08-06T08:58:57;19.40;1.00
33803;DHT22;20110;53.120;5.786;2023-08-06T09:01:23;19.70;99.90
33803;DHT22;20110;53.120;5.786;2023-08-06T09:03:51;19.50;99.90
33803;DHT22;20110;53.120;5.786;2023-08-06T09:06:19;19.50;99.90
33803;DHT22;20110;53.120;5.786;2023-08-06T09:09:12;19.90;1.00
33803;DHT22;20110;53.120;5.786;2023-08-06T09:11:44;19.60;76.80
33803;DHT22;20110;53.120;5.786;2023-08-06T09:14:13;19.60;99.90
33803;DHT22;20110;53.120;5.786;2023-08-06T09:16:39;19.90;87.90
33803;DHT22;20110;53.120;5.786;2023-08-06T09:19:09;20.20;72.40
33803;DHT22;20110;53.120;5.786;2023-08-06T09:21:41;20.10;1.00
33803;DHT22;20110;53.120;5.786;2023-08-06T09:24:09;19.90;1.00
33803;DHT22;20110;53.120;5.786;2023-08-06T09:26:44;19.90;99.90
33803;DHT22;20110;53.120;5.786;2023-08-06T09:29:11;19.90;1.00
33803;DHT22;20110;53.120;5.786;2023-08-06T09:31:45;19.80;1.00
33803;DHT22;20110;53.120;5.786;2023-08-06T09:34:17;19.60;1.00
33803;DHT22;20110;53.120;5.786;2023-08-06T09:36:52;19.50;1.00
33803;DHT22;20110;53.120;5.786;2023-08-06T09:39:28;19.40;1.00
33803;DHT22;20110;53.120;5.786;2023-08-06T09:41:59;19.30;9.30
33803;DHT22;20110;53.120;5.786;2023-08-06T09:44:31;19.40;1.00
33803;DHT22;20110;53.120;5.786;2023-08-06T09:47:00;19.50;1.00
33803;DHT22;20110;53.120;5.786;2023-08-06T09:49:46;19.60;1.00
33803;DHT22;20110;53.120;5.786;2023-08-06T09:52:13;19.70;1.00
33803;DHT22;20110;53.120;5.786;2023-08-06T09:54:43;19.90;99.90
33803;DHT22;20110;53.120;5.786;2023-08-06T09:57:09;19.70;99.90
33803;DHT22;20110;53.120;5.786;2023-08-06T09:59:39;19.60;1.00
33803;DHT22;20110;53.120;5.786;2023-08-06T10:02:12;19.60;99.90
33803;DHT22;20110;53.120;5.786;2023-08-06T10:04:39;19.80;99.90
33803;DHT22;20110;53.120;5.786;2023-08-06T10:07:06;20.00;1.00
33803;DHT22;20110;53.120;5.786;2023-08-06T10:09:32;20.10;1.00
33803;DHT22;20110;53.120;5.786;2023-08-06T10:11:58;20.00;99.90
33803;DHT22;20110;53.120;5.786;2023-08-06T10:14:28;20.00;1.00
33803;DHT22;20110;53.120;5.786;2023-08-06T10:16:58;19.90;1.00
33803;DHT22;20110;53.120;5.786;2023-08-06T10:19:26;19.50;1.00
33803;DHT22;20110;53.120;5.786;2023-08-06T10:22:09;19.30;1.00
33803;DHT22;20110;53.120;5.786;2023-08-06T10:24:54;19.10;1.00
33803;DHT22;20110;53.120;5.786;2023-08-06T10:27:28;19.30;1.00
33803;DHT22;20110;53.120;5.786;2023-08-06T10:30:24;19.70;1.00
33803;DHT22;20110;53.120;5.786;2023-08-06T10:32:52;20.10;1.00
33803;DHT22;20110;53.120;5.786;2023-08-06T10:35:36;20.40;1.00
33803;DHT22;20110;53.120;5.786;2023-08-06T10:38:08;20.10;1.00
33803;DHT22;20110;53.120;5.786;2023-08-06T10:40:41;19.40;1.00
33803;DHT22;20110;53.120;5.786;2023-08-06T10:43:35;19.10;99.90
33803;DHT22;20110;53.120;5.786;2023-08-06T10:46:10;18.90;99.90
33803;DHT22;20110;53.120;5.786;2023-08-06T10:48:55;19.00;99.90
33803;DHT22;20110;53.120;5.786;2023-08-06T10:51:21;18.80;99.90
33803;DHT22;20110;53.120;5.786;2023-08-06T10:53:49;18.60;99.90
33803;DHT22;20110;53.120;5.786;2023-08-06T10:56:17;18.70;99.90
33803;DHT22;20110;53.120;5.786;2023-08-06T10:58:48;18.90;99.90
33803;DHT22;20110;53.120;5.786;2023-08-06T11:01:15;18.80;99.90
33803;DHT22;20110;53.120;5.786;2023-08-06T11:03:45;18.70;99.90
33803;DHT22;20110;53.120;5.786;2023-08-06T11:06:17;18.60;99.90
33803;DHT22;20110;53.120;5.786;2023-08-06T11:08:54;18.50;99.90
33803;DHT22;20110;53.120;5.786;2023-08-06T11:11:22;18.70;1.00
33803;DHT22;20110;53.120;5.786;2023-08-06T11:13:50;18.70;1.00
33803;DHT22;20110;53.120;5.786;2023-08-06T11:16:22;18.80;1.00
33803;DHT22;20110;53.120;5.786;2023-08-06T11:18:51;18.70;1.00
33803;DHT22;20110;53.120;5.786;2023-08-06T11:21:20;18.60;99.90
33803;DHT22;20110;53.120;5.786;2023-08-06T11:23:47;18.50;1.00
33803;DHT22;20110;53.120;5.786;2023-08-06T11:26:19;18.80;41.80
33803;DHT22;20110;53.120;5.786;2023-08-06T11:28:45;19.00;63.90
33803;DHT22;20110;53.120;5.786;2023-08-06T11:31:21;18.90;1.00
33803;DHT22;20110;53.120;5.786;2023-08-06T11:33:50;18.80;1.00
33803;DHT22;20110;53.120;5.786;2023-08-06T11:36:17;18.80;1.00
33803;DHT22;20110;53.120;5.786;2023-08-06T11:38:54;18.90;1.00
33803;DHT22;20110;53.120;5.786;2023-08-06T11:41:21;19.10;1.00
33803;DHT22;20110;53.120;5.786;2023-08-06T11:43:48;19.20;99.90
33803;DHT22;20110;53.120;5.786;2023-08-06T11:46:14;19.70;1.00
33803;DHT22;20110;53.120;5.786;2023-08-06T11:48:57;20.40;99.90
33803;DHT22;20110;53.120;5.786;2023-08-06T11:51:27;21.00;81.00
33803;DHT22;20110;53.120;5.786;2023-08-06T11:53:57;21.80;99.90
33803;DHT22;20110;53.120;5.786;2023-08-06T11:56:27;22.60;1.00
33803;DHT22;20110;53.120;5.786;2023-08-06T11:58:54;22.50;1.00
33803;DHT22;20110;53.120;5.786;2023-08-06T12:01:21;23.00;44.80
33803;DHT22;20110;53.120;5.786;2023-08-06T12:03:47;23.20;99.90
33803;DHT22;20110;53.120;5.786;2023-08-06T12:06:12;23.30;99.90
33803;DHT22;20110;53.120;5.786;2023-08-06T12:08:38;23.30;99.90
33803;DHT22;20110;53.120;5.786;2023-08-06T12:11:04;22.90;99.90
33803;DHT22;20110;53.120;5.786;2023-08-06T12:13:30;22.70;99.90
33803;DHT22;20110;53.120;5.786;2023-08-06T12:15:56;23.00;99.90
33803;DHT22;20110;53.120;5.786;2023-08-06T12:18:23;22.80;99.90
33803;DHT22;20110;53.120;5.786;2023-08-06T12:20:49;22.10;99.90
33803;DHT22;20110;53.120;5.786;2023-08-06T12:23:15;21.70;99.90
33803;DHT22;20110;53.120;5.786;2023-08-06T12:25:41;21.20;99.90
33803;DHT22;20110;53.120;5.786;2023-08-06T12:28:07;20.70;99.90
33803;DHT22;20110;53.120;5.786;2023-08-06T12:30:34;20.40;99.90
33803;DHT22;20110;53.120;5.786;2023-08-06T12:33:00;20.20;36.10
33803;DHT22;20110;53.120;5.786;2023-08-06T12:35:26;20.10;99.90
33803;DHT22;20110;53.120;5.786;2023-08-06T12:37:52;19.90;99.90
33803;DHT22;20110;53.120;5.786;2023-08-06T12:40:20;19.70;99.90
33803;DHT22;20110;53.120;5.786;2023-08-06T12:42:46;19.50;99.90
33803;DHT22;20110;53.120;5.786;2023-08-06T12:45:12;19.40;99.90
33803;DHT22;20110;53.120;5.786;2023-08-06T12:47:38;19.30;99.90
33803;DHT22;20110;53.120;5.786;2023-08-06T12:50:04;19.20;99.90
33803;DHT22;20110;53.120;5.786;2023-08-06T12:52:31;19.00;99.90
33803;DHT22;20110;53.120;5.786;2023-08-06T12:54:57;19.00;99.90
33803;DHT22;20110;53.120;5.786;2023-08-06T12:57:23;19.00;99.90
33803;DHT22;20110;53.120;5.786;2023-08-06T12:59:49;18.90;99.90
33803;DHT22;20110;53.120;5.786;2023-08-06T13:02:15;19.00;99.90
33803;DHT22;20110;53.120;5.786;2023-08-06T13:04:41;19.30;99.90
33803;DHT22;20110;53.120;5.786;2023-08-06T13:07:06;19.30;99.90
33803;DHT22;20110;53.120;5.786;2023-08-06T13:09:33;19.30;99.90
33803;DHT22;20110;53.120;5.786;2023-08-06T13:11:59;19.20;99.90
33803;DHT22;20110;53.120;5.786;2023-08-06T13:14:25;19.20;99.90
33803;DHT22;20110;53.120;5.786;2023-08-06T13:16:51;19.00;99.90
33803;DHT22;20110;53.120;5.786;2023-08-06T13:19:17;18.90;99.90
33803;DHT22;20110;53.120;5.786;2023-08-06T13:24:12;19.00;99.90
33803;DHT22;20110;53.120;5.786;2023-08-06T13:26:38;19.10;99.90
33803;DHT22;20110;53.120;5.786;2023-08-06T13:29:04;19.20;99.90
33803;DHT22;20110;53.120;5.786;2023-08-06T13:31:32;19.20;99.90
33803;DHT22;20110;53.120;5.786;2023-08-06T13:33:58;19.30;99.90
33803;DHT22;20110;53.120;5.786;2023-08-06T13:36:28;19.30;99.90
33803;DHT22;20110;53.120;5.786;2023-08-06T13:38:54;19.20;99.90
33803;DHT22;20110;53.120;5.786;2023-08-06T13:41:20;18.90;99.90
33803;DHT22;20110;53.120;5.786;2023-08-06T13:43:46;18.60;99.90
33803;DHT22;20110;53.120;5.786;2023-08-06T13:46:12;18.30;1.00
33803;DHT22;20110;53.120;5.786;2023-08-06T13:48:45;17.60;1.00
33803;DHT22;20110;53.120;5.786;2023-08-06T13:51:13;16.80;99.90
33803;DHT22;20110;53.120;5.786;2023-08-06T13:53:40;16.30;99.90
33803;DHT22;20110;53.120;5.786;2023-08-06T13:56:08;16.00;99.90
33803;DHT22;20110;53.120;5.786;2023-08-06T13:58:38;16.00;99.90
33803;DHT22;20110;53.120;5.786;2023-08-06T14:01:04;15.80;99.90
33803;DHT22;20110;53.120;5.786;2023-08-06T14:03:30;15.70;99.90
33803;DHT22;20110;53.120;5.786;2023-08-06T14:05:56;15.70;99.90
33803;DHT22;20110;53.120;5.786;2023-08-06T14:08:23;15.80;99.90
33803;DHT22;20110;53.120;5.786;2023-08-06T14:10:50;15.80;99.90
33803;DHT22;20110;53.120;5.786;2023-08-06T14:13:17;15.80;99.90
33803;DHT22;20110;53.120;5.786;2023-08-06T14:15:43;15.80;99.90
33803;DHT22;20110;53.120;5.786;2023-08-06T14:18:12;15.90;99.90
33803;DHT22;20110;53.120;5.786;2023-08-06T14:20:39;16.10;99.90
33803;DHT22;20110;53.120;5.786;2023-08-06T14:23:07;16.40;99.90
33803;DHT22;20110;53.120;5.786;2023-08-06T14:25:33;16.50;99.90
33803;DHT22;20110;53.120;5.786;2023-08-06T14:27:59;16.70;99.90
33803;DHT22;20110;53.120;5.786;2023-08-06T14:30:25;16.80;99.90
33803;DHT22;20110;53.120;5.786;2023-08-06T14:32:50;17.00;99.90
33803;DHT22;20110;53.120;5.786;2023-08-06T14:35:16;17.00;99.90
33803;DHT22;20110;53.120;5.786;2023-08-06T14:37:42;17.10;99.90
33803;DHT22;20110;53.120;5.786;2023-08-06T14:40:10;17.30;99.90
33803;DHT22;20110;53.120;5.786;2023-08-06T14:42:36;17.60;99.90
33803;DHT22;20110;53.120;5.786;2023-08-06T14:45:03;17.80;99.90
33803;DHT22;20110;53.120;5.786;2023-08-06T14:47:29;18.20;99.90
33803;DHT22;20110;53.120;5.786;2023-08-06T14:49:55;18.30;99.90
33803;DHT22;20110;53.120;5.786;2023-08-06T14:52:21;18.40;99.90
33803;DHT22;20110;53.120;5.786;2023-08-06T14:54:48;18.20;99.90
33803;DHT22;20110;53.120;5.786;2023-08-06T14:57:17;18.20;1.00
33803;DHT22;20110;53.120;5.786;2023-08-06T14:59:43;18.00;99.90
33803;DHT22;20110;53.120;5.786;2023-08-06T15:02:09;17.90;99.90
33803;DHT22;20110;53.120;5.786;2023-08-06T15:04:35;18.00;1.00
33803;DHT22;20110;53.120;5.786;2023-08-06T15:07:01;18.30;64.50
33803;DHT22;20110;53.120;5.786;2023-08-06T15:09:27;18.40;99.90
33803;DHT22;20110;53.120;5.786;2023-08-06T15:11:53;18.40;1.90
33803;DHT22;20110;53.120;5.786;2023-08-06T15:14:19;18.10;1.00
33803;DHT22;20110;53.120;5.786;2023-08-06T15:16:47;18.60;26.40
33803;DHT22;20110;53.120;5.786;2023-08-06T15:19:13;18.90;99.90
33803;DHT22;20110;53.120;5.786;2023-08-06T15:21:38;18.50;99.90
33803;DHT22;20110;53.120;5.786;2023-08-06T15:24:04;18.50;99.90
33803;DHT22;20110;53.120;5.786;2023-08-06T15:26:30;18.20;99.90
33803;DHT22;20110;53.120;5.786;2023-08-06T15:28:56;18.00;99.90
33803;DHT22;20110;53.120;5.786;2023-08-06T15:31:22;18.10;99.90
33803;DHT22;20110;53.120;5.786;2023-08-06T15:33:48;18.20;99.90
33803;DHT22;20110;53.120;5.786;2023-08-06T15:36:14;18.20;99.90
33803;DHT22;20110;53.120;5.786;2023-08-06T15:38:40;18.40;99.90
33803;DHT22;20110;53.120;5.786;2023-08-06T15:41:06;18.30;99.90
33803;DHT22;20110;53.120;5.786;2023-08-06T15:43:33;18.30;99.90